Time;durP1;ratioP1;P1;durP2;ratioP2;P2;SDS_P1;SDS_P2;PMS_P1;PMS_P2;Temp;Humidity;BMP_temperature;BMP_pressure;BME280_temperature;BME280_humidity;BME280_pressure;Samples;Min_cycle;Max_cycle;Signal;HPM_P1;HPM_P2
2023/06/12 00:00:52;;;;;;;4.43;4.03;;;;;;;18.42;40.69;101025.59;6279602;22;20030;-82
2023/06/12 00:03:21;;;;;;;4.55;4.10;;;;;;;18.36;41.46;101028.44;6271360;22;20019;-89
2023/06/12 00:05:48;;;;;;;7.57;4.68;;;;;;;18.29;41.93;101025.16;6268800;22;20019;-78
2023/06/12 00:08:17;;;;;;;6.53;4.82;;;;;;;18.23;42.96;101022.72;6273944;22;20026;-78
2023/06/12 00:10:45;;;;;;;5.80;5.13;;;;;;;18.18;43.55;101016.72;6274293;22;20027;-79
2023/06/12 00:13:14;;;;;;;5.13;4.53;;;;;;;18.15;43.21;101022.13;6272814;22;20060;-80
2023/06/12 00:15:41;;;;;;;6.22;5.25;;;;;;;18.06;43.84;101022.44;6275099;22;20122;-79
2023/06/12 00:18:07;;;;;;;11.30;5.10;;;;;;;18.03;44.54;101015.47;6274732;22;20019;-84
2023/06/12 00:20:34;;;;;;;5.63;4.70;;;;;;;17.99;44.33;101020.00;6272091;22;20023;-80
2023/06/12 00:23:01;;;;;;;8.65;5.10;;;;;;;17.97;45.31;101013.03;6272606;22;20015;-83
2023/06/12 00:25:28;;;;;;;5.47;4.97;;;;;;;17.91;45.74;101021.13;6249344;22;20011;-80
2023/06/12 00:27:54;;;;;;;5.63;5.13;;;;;;;17.89;45.62;101028.28;6247934;22;20069;-79
2023/06/12 00:30:21;;;;;;;6.57;5.82;;;;;;;17.84;46.43;101021.34;6274378;22;20046;-79
2023/06/12 00:32:48;;;;;;;6.15;5.55;;;;;;;17.79;47.68;101025.91;6271146;22;20015;-87
2023/06/12 00:35:18;;;;;;;6.95;5.07;;;;;;;17.82;47.81;101023.19;6273055;22;20121;-81
2023/06/12 00:37:46;;;;;;;6.15;5.05;;;;;;;17.80;47.78;101029.44;6300200;22;20081;-79
2023/06/12 00:40:14;;;;;;;6.88;5.15;;;;;;;17.74;48.40;101029.66;6274483;22;20098;-84
2023/06/12 00:42:52;;;;;;;5.93;5.30;;;;;;;17.69;48.80;101035.97;6274720;22;20023;-84
2023/06/12 00:45:21;;;;;;;5.30;4.80;;;;;;;17.68;48.14;101034.22;6252077;22;20027;-82
2023/06/12 00:47:52;;;;;;;5.72;5.05;;;;;;;17.61;48.44;101034.47;6279249;22;20103;-79
2023/06/12 00:50:20;;;;;;;5.60;5.10;;;;;;;17.51;49.55;101026.81;6278093;22;20023;-77
2023/06/12 00:52:49;;;;;;;6.32;5.20;;;;;;;17.46;50.16;101031.41;6276217;22;20061;-81
2023/06/12 00:55:17;;;;;;;6.45;5.05;;;;;;;17.47;49.66;101026.97;6251290;22;20029;-77
2023/06/12 00:57:44;;;;;;;6.53;5.75;;;;;;;17.41;50.48;101033.31;6275152;22;20018;-80
2023/06/12 01:00:14;;;;;;;6.00;5.40;;;;;;;17.39;52.75;101035.16;6271816;22;20037;-88
2023/06/12 01:02:44;;;;;;;7.13;5.95;;;;;;;17.36;51.83;101030.84;6244112;22;20011;-77
2023/06/12 01:05:14;;;;;;;10.27;5.70;;;;;;;17.32;52.83;101031.81;6271841;22;20019;-82
2023/06/12 01:07:48;;;;;;;5.80;5.30;;;;;;;17.30;52.66;101028.38;6266007;22;20023;-81
2023/06/12 01:10:30;;;;;;;6.95;5.10;;;;;;;17.26;53.15;101031.16;6268568;22;20023;-82
2023/06/12 01:12:58;;;;;;;9.10;6.55;;;;;;;17.23;53.64;101029.47;6269194;22;20099;-82
2023/06/12 01:15:24;;;;;;;5.38;4.88;;;;;;;17.22;53.74;101021.59;6267156;22;20019;-78
2023/06/12 01:17:51;;;;;;;5.57;5.05;;;;;;;17.18;54.40;101021.69;6268257;22;20044;-85
2023/06/12 01:20:18;;;;;;;7.53;6.05;;;;;;;17.15;55.34;101027.06;6262649;22;20014;-85
2023/06/12 01:22:55;;;;;;;6.68;5.43;;;;;;;17.15;55.56;101024.41;6263970;22;20022;-85
2023/06/12 01:25:55;;;;;;;7.78;6.18;;;;;;;17.16;55.66;101026.16;6266261;22;20016;-82
2023/06/12 01:29:07;;;;;;;6.88;6.18;;;;;;;17.13;55.51;101020.97;6269972;22;20015;-86
2023/06/12 01:32:14;;;;;;;7.68;5.53;;;;;;;17.10;55.58;101026.31;6297265;22;20019;-84
2023/06/12 01:34:57;;;;;;;10.50;5.97;;;;;;;17.08;55.75;101014.94;6271746;22;20104;-77
2023/06/12 01:37:33;;;;;;;8.25;5.65;;;;;;;17.01;55.87;101016.91;6271328;22;20430;-83
2023/06/12 01:40:04;;;;;;;8.18;6.30;;;;;;;16.99;56.43;101026.66;6270774;22;20342;-78
2023/06/12 01:42:32;;;;;;;6.55;5.55;;;;;;;16.96;56.76;101023.22;6268640;22;20019;-83
2023/06/12 01:44:58;;;;;;;6.75;6.13;;;;;;;16.92;56.43;101018.94;6271032;22;20015;-77
2023/06/12 01:47:25;;;;;;;6.43;5.85;;;;;;;16.89;57.13;101017.22;6244985;22;20011;-84
2023/06/12 01:49:51;;;;;;;6.93;6.22;;;;;;;16.88;56.46;101018.13;6270649;22;20019;-81
2023/06/12 01:52:18;;;;;;;8.50;6.00;;;;;;;16.85;56.62;101020.88;6275776;22;20015;-81
2023/06/12 01:54:47;;;;;;;9.90;6.57;;;;;;;16.81;57.56;101020.09;6252449;22;20023;-88
2023/06/12 01:57:15;;;;;;;6.30;5.63;;;;;;;16.79;57.19;101036.91;6278497;22;20357;-81
2023/06/12 01:59:41;;;;;;;8.30;6.65;;;;;;;16.75;58.12;101035.28;6278868;22;20034;-79
2023/06/12 02:02:08;;;;;;;7.72;5.82;;;;;;;16.75;59.34;101029.97;6252644;22;20041;-81
2023/06/12 02:04:34;;;;;;;8.45;6.80;;;;;;;16.75;58.44;101036.16;6254899;22;20164;-78
2023/06/12 02:07:01;;;;;;;9.32;6.57;;;;;;;16.72;58.49;101032.72;6277544;22;20019;-82
2023/06/12 02:09:28;;;;;;;6.75;6.05;;;;;;;16.67;58.54;101032.84;6276901;22;20027;-77
2023/06/12 02:11:54;;;;;;;9.70;6.55;;;;;;;16.65;58.45;101024.97;6278218;22;20076;-78
2023/06/12 02:14:23;;;;;;;7.18;5.93;;;;;;;16.63;58.86;101031.19;6277196;22;20170;-79
2023/06/12 02:16:53;;;;;;;8.23;6.93;;;;;;;16.59;59.84;101032.22;6278573;22;20095;-78
2023/06/12 02:19:25;;;;;;;9.20;6.68;;;;;;;16.54;59.25;101024.38;6273119;22;20022;-79
2023/06/12 02:21:59;;;;;;;11.60;7.68;;;;;;;16.49;59.85;101024.53;6264030;22;20101;-83
2023/06/12 02:24:31;;;;;;;10.55;7.65;;;;;;;16.46;60.29;101021.97;6267176;22;20126;-81
2023/06/12 02:26:58;;;;;;;7.78;6.97;;;;;;;16.43;60.04;101019.41;6246672;22;20023;-77
2023/06/12 02:29:26;;;;;;;8.55;5.82;;;;;;;16.46;59.93;101029.03;6255770;22;20015;-79
2023/06/12 02:31:52;;;;;;;7.15;6.22;;;;;;;16.42;60.25;101028.25;6276763;22;20419;-77
2023/06/12 02:34:19;;;;;;;8.60;7.68;;;;;;;16.41;61.11;101029.13;6272679;22;20077;-88
2023/06/12 02:36:47;;;;;;;7.28;6.57;;;;;;;16.40;60.44;101030.06;6271757;22;20072;-81
2023/06/12 02:39:14;;;;;;;8.43;7.60;;;;;;;16.37;61.25;101036.31;6277833;22;20666;-78
2023/06/12 02:41:42;;;;;;;8.05;7.25;;;;;;;16.33;61.46;101032.00;6247759;22;20022;-77
2023/06/12 02:44:09;;;;;;;8.23;7.18;;;;;;;16.31;61.45;101041.75;6279773;22;20019;-78
2023/06/12 02:46:53;;;;;;;7.57;6.88;;;;;;;16.27;62.44;101040.09;6271445;22;20026;-78
2023/06/12 02:49:20;;;;;;;7.18;6.53;;;;;;;16.20;62.55;101043.81;6271858;22;20019;-86
2023/06/12 02:51:47;;;;;;;8.60;7.00;;;;;;;16.18;63.11;101037.72;6271590;22;20564;-78
2023/06/12 02:54:16;;;;;;;6.80;6.07;;;;;;;16.14;63.55;101041.31;6271742;22;20019;-82
2023/06/12 02:56:44;;;;;;;8.63;7.70;;;;;;;16.10;64.37;101040.53;6297362;22;20022;-79
2023/06/12 02:59:14;;;;;;;12.52;6.93;;;;;;;16.08;64.26;101044.97;6273003;22;20120;-79
2023/06/12 03:01:43;;;;;;;7.88;6.80;;;;;;;16.09;64.19;101037.91;6271747;22;20030;-79
2023/06/12 03:04:12;;;;;;;10.43;6.60;;;;;;;16.05;64.23;101039.78;6272353;22;20049;-82
2023/06/12 03:06:39;;;;;;;7.50;6.13;;;;;;;16.04;64.19;101033.63;6297558;22;20041;-76
2023/06/12 03:09:09;;;;;;;8.63;7.28;;;;;;;16.05;64.67;101039.78;6272799;22;20072;-84
2023/06/12 03:11:37;;;;;;;7.72;6.70;;;;;;;16.02;64.34;101047.78;6299721;22;20019;-78
2023/06/12 03:14:05;;;;;;;9.50;7.47;;;;;;;16.01;64.46;101046.91;6269535;22;20015;-84
2023/06/12 03:16:32;;;;;;;8.27;6.88;;;;;;;15.99;64.66;101048.72;6274225;22;20019;-80
2023/06/12 03:18:59;;;;;;;10.38;7.57;;;;;;;15.98;64.55;101052.28;6268473;22;20120;-78
2023/06/12 03:21:25;;;;;;;8.77;7.35;;;;;;;15.97;64.72;101062.88;6268357;22;20080;-82
2023/06/12 03:23:52;;;;;;;7.20;6.47;;;;;;;15.97;64.74;101061.13;6273989;22;20033;-83
2023/06/12 03:26:18;;;;;;;9.13;7.90;;;;;;;15.95;64.85;101064.69;6274753;22;20031;-77
2023/06/12 03:28:46;;;;;;;7.60;6.88;;;;;;;15.91;65.17;101060.41;6273801;22;20410;-77
2023/06/12 03:31:13;;;;;;;9.23;7.70;;;;;;;15.92;64.94;101062.13;6275071;22;20018;-76
2023/06/12 03:33:40;;;;;;;8.02;6.55;;;;;;;15.89;64.65;101063.06;6249324;22;20022;-80
2023/06/12 03:36:06;;;;;;;8.07;7.13;;;;;;;15.89;65.03;101060.41;6276437;22;20035;-77
2023/06/12 03:38:33;;;;;;;7.40;6.60;;;;;;;15.88;64.96;101066.63;6274592;22;20025;-76
2023/06/12 03:40:59;;;;;;;6.80;6.05;;;;;;;15.87;64.97;101067.53;6275176;22;20072;-78
2023/06/12 03:43:26;;;;;;;8.55;6.97;;;;;;;15.88;65.29;101063.97;6274663;22;20022;-80
2023/06/12 03:45:52;;;;;;;12.32;7.10;;;;;;;15.86;65.15;101060.50;6275806;22;20076;-79
2023/06/12 03:48:19;;;;;;;8.32;6.70;;;;;;;15.87;65.72;101060.44;6274854;22;20020;-76
2023/06/12 03:50:46;;;;;;;10.15;6.10;;;;;;;15.88;65.28;101061.34;6275719;22;20086;-80
2023/06/12 03:53:12;;;;;;;8.55;7.25;;;;;;;15.88;65.50;101061.34;6275531;22;20700;-75
2023/06/12 03:55:39;;;;;;;7.70;6.22;;;;;;;15.87;65.52;101060.44;6277256;22;20090;-78
2023/06/12 03:58:05;;;;;;;11.57;6.95;;;;;;;15.92;64.98;101055.06;6278934;22;20019;-83
2023/06/12 04:00:32;;;;;;;7.57;6.47;;;;;;;15.96;65.18;101061.16;6280816;22;20023;-80
2023/06/12 04:02:58;;;;;;;6.43;5.82;;;;;;;15.98;64.87;101054.94;6281548;22;20417;-76
2023/06/12 04:05:26;;;;;;;7.15;6.00;;;;;;;15.99;64.79;101061.06;6280311;22;20019;-77
2023/06/12 04:07:52;;;;;;;6.43;5.82;;;;;;;16.02;64.42;101063.63;6273847;22;20045;-85
2023/06/12 04:10:19;;;;;;;7.68;6.28;;;;;;;16.04;64.35;101075.03;6247897;22;20011;-76
2023/06/12 04:12:45;;;;;;;11.77;5.97;;;;;;;16.01;64.41;101075.13;6274578;22;20330;-76
2023/06/12 04:15:12;;;;;;;8.55;6.82;;;;;;;16.04;64.38;101077.66;6250217;22;20015;-76
2023/06/12 04:17:38;;;;;;;8.35;6.00;;;;;;;16.07;63.83;101082.00;6275472;22;20065;-91
2023/06/12 04:20:06;;;;;;;6.88;6.18;;;;;;;16.08;63.61;101079.31;6276877;22;20023;-77
2023/06/12 04:22:32;;;;;;;11.23;7.85;;;;;;;16.09;63.82;101080.16;6273262;22;20019;-79
2023/06/12 04:25:01;;;;;;;6.90;6.30;;;;;;;16.10;63.58;101081.91;6274735;22;20019;-80
2023/06/12 04:27:28;;;;;;;6.85;5.43;;;;;;;16.07;63.70;101082.84;6274071;22;20379;-80
2023/06/12 04:29:56;;;;;;;6.70;5.90;;;;;;;16.07;63.88;101079.38;6273906;22;20023;-80
2023/06/12 04:32:23;;;;;;;7.43;6.68;;;;;;;16.03;64.91;101083.84;6274807;22;20043;-77
2023/06/12 04:34:50;;;;;;;6.78;6.07;;;;;;;16.06;64.75;101080.25;6275673;22;20137;-83
2023/06/12 04:37:18;;;;;;;9.60;6.70;;;;;;;16.06;65.35;101085.53;6275968;22;20019;-77
2023/06/12 04:39:46;;;;;;;8.38;6.30;;;;;;;16.03;65.49;101081.19;6274257;22;20108;-77
2023/06/12 04:42:16;;;;;;;12.65;6.93;;;;;;;16.03;66.06;101086.47;6251343;22;20102;-79
2023/06/12 04:44:46;;;;;;;8.02;6.07;;;;;;;16.03;66.00;101079.44;6276778;22;20019;-84
2023/06/12 04:47:14;;;;;;;7.22;6.53;;;;;;;16.01;66.91;101081.25;6277114;22;20046;-78
2023/06/12 04:49:43;;;;;;;8.32;6.30;;;;;;;16.02;67.04;101080.34;6251699;22;20019;-83
2023/06/12 04:52:12;;;;;;;12.52;7.55;;;;;;;16.14;66.42;101079.16;6249514;22;20011;-79
2023/06/12 04:54:44;;;;;;;8.88;7.25;;;;;;;16.30;66.21;101076.13;6276235;22;20022;-81
2023/06/12 04:57:12;;;;;;;11.60;6.55;;;;;;;16.38;65.85;101082.06;6252116;22;20442;-81
2023/06/12 04:59:40;;;;;;;10.63;7.10;;;;;;;16.47;65.64;101089.75;6276556;22;20042;-84
2023/06/12 05:02:09;;;;;;;11.70;7.53;;;;;;;16.56;65.57;101086.00;6304025;22;20018;-79
2023/06/12 05:04:37;;;;;;;12.68;7.47;;;;;;;16.65;65.65;101079.63;6276485;22;20073;-84
2023/06/12 05:07:13;;;;;;;9.05;5.97;;;;;;;16.78;65.05;101075.72;6273675;22;20504;-80
2023/06/12 05:09:46;;;;;;;11.90;8.50;;;;;;;16.86;65.02;101075.50;6273866;22;20026;-78
2023/06/12 05:12:13;;;;;;;8.65;7.20;;;;;;;16.94;65.02;101084.09;6272759;22;20118;-86
2023/06/12 05:14:42;;;;;;;13.68;7.13;;;;;;;17.00;65.12;101078.66;6246454;22;20109;-79
2023/06/12 05:17:09;;;;;;;9.10;7.68;;;;;;;17.06;64.66;101077.59;6273319;22;20019;-78
2023/06/12 05:19:38;;;;;;;8.55;6.85;;;;;;;17.11;64.36;101088.06;6244128;22;20027;-83
2023/06/12 05:22:05;;;;;;;9.40;7.10;;;;;;;17.12;64.72;101085.34;6268990;22;20022;-79
2023/06/12 05:24:32;;;;;;;10.38;7.45;;;;;;;17.12;64.94;101089.78;6300166;22;20025;-83
2023/06/12 05:27:00;;;;;;;11.35;7.65;;;;;;;17.07;65.34;101089.06;6272350;22;20023;-80
2023/06/12 05:29:27;;;;;;;9.20;6.70;;;;;;;17.04;65.27;101087.38;6271730;22;20015;-77
2023/06/12 05:31:54;;;;;;;17.58;8.45;;;;;;;17.03;65.67;101088.28;6296132;22;20042;-83
2023/06/12 05:34:21;;;;;;;10.13;8.10;;;;;;;17.06;65.63;101087.31;6269015;22;20026;-78
2023/06/12 05:36:47;;;;;;;14.82;8.50;;;;;;;17.12;65.47;101088.00;6270751;22;20042;-80
2023/06/12 05:39:14;;;;;;;8.80;6.30;;;;;;;17.24;64.99;101085.91;6272036;22;20065;-84
2023/06/12 05:41:41;;;;;;;10.15;7.82;;;;;;;17.40;64.63;101091.59;6269722;22;20034;-80
2023/06/12 05:44:09;;;;;;;8.32;7.20;;;;;;;17.47;64.32;101082.53;6249145;22;20080;-78
2023/06/12 05:46:35;;;;;;;8.98;7.05;;;;;;;17.59;63.86;101092.75;6275942;22;20023;-84
2023/06/12 05:49:02;;;;;;;7.53;6.50;;;;;;;17.77;63.29;101087.78;6275961;22;20019;-81
2023/06/12 05:51:29;;;;;;;10.38;6.88;;;;;;;17.99;62.61;101090.63;6273955;22;20019;-78
2023/06/12 05:53:56;;;;;;;9.98;7.00;;;;;;;18.15;62.26;101088.38;6273318;22;20016;-78
2023/06/12 05:56:23;;;;;;;20.00;8.50;;;;;;;18.25;61.79;101091.56;6270094;22;20019;-80
2023/06/12 05:58:50;;;;;;;10.00;7.55;;;;;;;18.39;61.30;101101.69;6246257;22;20019;-77
2023/06/12 06:01:21;;;;;;;12.20;7.85;;;;;;;18.44;61.02;101100.59;6273017;22;20433;-84
2023/06/12 06:03:48;;;;;;;11.05;7.25;;;;;;;18.44;61.12;101100.59;6275424;22;20023;-79
2023/06/12 06:06:16;;;;;;;8.35;7.43;;;;;;;18.44;61.48;101095.31;6272923;22;20379;-79
2023/06/12 06:08:43;;;;;;;11.95;7.47;;;;;;;18.44;61.62;101100.59;6247430;22;20833;-82
2023/06/12 06:11:10;;;;;;;10.20;8.45;;;;;;;18.45;61.93;101107.66;6274316;22;20603;-81
2023/06/12 06:13:37;;;;;;;25.52;8.75;;;;;;;18.50;62.00;101105.69;6273819;22;20019;-84
2023/06/12 06:16:04;;;;;;;109.47;21.15;;;;;;;18.64;61.69;101115.84;6273411;22;20100;-83
2023/06/12 06:18:30;;;;;;;11.60;7.80;;;;;;;18.83;61.15;101117.81;6272553;22;20072;-78
2023/06/12 06:20:57;;;;;;;23.67;10.20;;;;;;;18.97;60.69;101115.56;6272883;22;20027;-79
2023/06/12 06:23:24;;;;;;;7.90;7.07;;;;;;;19.11;60.43;101116.81;6273004;22;20118;-82
2023/06/12 06:25:51;;;;;;;55.03;12.68;;;;;;;19.20;60.16;101118.28;6273531;22;20025;-83
2023/06/12 06:28:18;;;;;;;27.27;10.52;;;;;;;19.18;60.00;101119.19;6272560;22;20437;-83
2023/06/12 06:30:44;;;;;;;38.67;11.32;;;;;;;19.26;59.91;101126.88;6248102;22;20015;-78
2023/06/12 06:33:11;;;;;;;28.98;10.27;;;;;;;19.34;59.83;101122.13;6298479;22;20015;-77
2023/06/12 06:35:37;;;;;;;15.75;8.00;;;;;;;19.45;59.95;101127.03;6248145;22;20103;-82
2023/06/12 06:38:04;;;;;;;11.88;7.88;;;;;;;19.55;59.33;101124.03;6273907;22;20041;-78
2023/06/12 06:40:30;;;;;;;8.82;7.75;;;;;;;19.57;58.98;101136.31;6247180;22;20308;-80
2023/06/12 06:42:57;;;;;;;17.42;8.00;;;;;;;19.61;58.84;101132.63;6273553;22;20454;-78
2023/06/12 06:45:23;;;;;;;12.57;7.88;;;;;;;19.70;58.72;101134.06;6273665;22;20026;-81
2023/06/12 06:47:50;;;;;;;14.43;7.65;;;;;;;19.78;57.65;101141.72;6273311;22;20654;-77
2023/06/12 06:50:16;;;;;;;12.77;6.47;;;;;;;19.79;57.51;101140.78;6273637;22;20026;-78
2023/06/12 06:52:43;;;;;;;11.93;6.97;;;;;;;19.82;57.75;101138.03;6272419;22;20015;-81
2023/06/12 06:55:09;;;;;;;8.02;6.30;;;;;;;19.88;57.56;101144.91;6272518;22;20011;-79
2023/06/12 06:57:38;;;;;;;9.18;7.25;;;;;;;19.89;57.44;101146.63;6273674;22;20027;-80
2023/06/12 07:00:06;;;;;;;7.70;6.90;;;;;;;19.93;57.31;101145.56;6248325;22;20345;-78
2023/06/12 07:02:33;;;;;;;10.43;8.18;;;;;;;19.98;56.69;101149.75;6273660;22;20095;-78
2023/06/12 07:04:59;;;;;;;8.55;7.45;;;;;;;20.04;56.75;101151.34;6277789;22;20023;-82
2023/06/12 07:07:26;;;;;;;15.50;7.70;;;;;;;20.21;56.61;101155.06;6276139;22;20019;-79
2023/06/12 07:09:52;;;;;;;15.45;7.20;;;;;;;20.45;55.97;101151.38;6275321;22;20016;-78
2023/06/12 07:12:20;;;;;;;13.40;7.00;;;;;;;20.61;54.92;101148.06;6272387;22;20019;-80
2023/06/12 07:14:47;;;;;;;19.67;8.25;;;;;;;20.71;54.73;101144.13;6299450;22;20061;-77
2023/06/12 07:17:13;;;;;;;12.25;7.53;;;;;;;20.82;53.68;101141.00;6274188;22;20615;-76
2023/06/12 07:19:39;;;;;;;18.92;7.75;;;;;;;20.85;53.59;101140.84;6273399;22;20019;-84
2023/06/12 07:22:06;;;;;;;52.90;11.43;;;;;;;20.99;53.38;101154.41;6274095;22;20019;-83
2023/06/12 07:24:32;;;;;;;16.27;7.60;;;;;;;21.29;52.78;101145.13;6272772;22;20019;-78
2023/06/12 07:26:59;;;;;;;12.13;7.60;;;;;;;21.76;51.55;101141.19;6270662;22;20030;-78
2023/06/12 07:29:27;;;;;;;11.52;7.00;;;;;;;22.34;50.28;101136.56;6246511;22;20530;-80
2023/06/12 07:31:53;;;;;;;11.02;8.32;;;;;;;23.00;48.95;101137.59;6298089;22;20023;-78
2023/06/12 07:34:20;;;;;;;12.77;7.22;;;;;;;23.66;47.45;101141.19;6273824;22;20015;-80
2023/06/12 07:36:46;;;;;;;13.85;7.80;;;;;;;24.07;45.79;101138.00;6247124;22;20110;-84
2023/06/12 07:39:13;;;;;;;120.32;24.92;;;;;;;24.25;44.90;101136.06;6273751;22;20022;-83
2023/06/12 07:41:42;;;;;;;26.05;8.68;;;;;;;24.77;44.70;101137.44;6272821;22;20022;-80
2023/06/12 07:44:10;;;;;;;18.67;8.40;;;;;;;25.30;43.79;101135.03;6272578;22;20100;-79
2023/06/12 07:46:37;;;;;;;11.23;7.10;;;;;;;25.64;42.92;101143.63;6298216;22;20018;-78
2023/06/12 07:49:04;;;;;;;8.48;7.50;;;;;;;26.07;42.02;101143.53;6271730;22;20724;-80
2023/06/12 07:51:31;;;;;;;12.20;6.95;;;;;;;26.77;40.38;101129.94;6270794;22;20088;-82
2023/06/12 07:53:57;;;;;;;8.13;6.05;;;;;;;27.24;38.83;101139.97;6270307;22;20049;-81
2023/06/12 07:56:24;;;;;;;10.85;6.38;;;;;;;27.71;38.79;101134.81;6271379;22;20039;-85
2023/06/12 07:58:52;;;;;;;9.57;6.82;;;;;;;28.03;37.68;101142.34;6272006;22;20061;-79
2023/06/12 08:01:22;;;;;;;5.95;5.45;;;;;;;28.28;37.32;101143.19;6268995;22;20019;-90
2023/06/12 08:03:49;;;;;;;7.43;5.85;;;;;;;28.54;34.79;101143.03;6245845;22;20019;-85
2023/06/12 08:06:16;;;;;;;10.50;5.38;;;;;;;28.31;35.37;101145.63;6273942;22;20025;-82
2023/06/12 08:08:47;;;;;;;6.80;5.90;;;;;;;28.17;35.09;101145.84;6252030;22;20015;-79
2023/06/12 08:11:15;;;;;;;8.98;6.07;;;;;;;28.10;35.67;101145.44;6278404;22;20023;-84
2023/06/12 08:13:41;;;;;;;6.60;5.30;;;;;;;28.75;35.37;101140.50;6280630;22;20026;-87
2023/06/12 08:16:09;;;;;;;6.00;5.40;;;;;;;29.14;32.91;101138.34;6306860;22;20081;-83
2023/06/12 08:18:36;;;;;;;8.05;6.03;;;;;;;29.19;33.13;101138.81;6280710;22;20019;-81
2023/06/12 08:21:02;;;;;;;7.43;5.90;;;;;;;29.17;32.41;101137.22;6254787;22;20430;-84
2023/06/12 08:23:28;;;;;;;6.40;5.28;;;;;;;28.86;33.09;101140.53;6255240;22;20034;-81
2023/06/12 08:25:55;;;;;;;5.57;4.90;;;;;;;28.95;31.92;101132.69;6253982;22;20030;-83
2023/06/12 08:28:21;;;;;;;10.45;6.10;;;;;;;28.97;32.29;101136.09;6254822;22;20023;-83
2023/06/12 08:30:48;;;;;;;7.38;5.25;;;;;;;29.54;31.55;101135.13;6280675;22;20049;-82
2023/06/12 08:33:15;;;;;;;6.35;5.28;;;;;;;30.00;30.85;101133.19;6274239;22;20363;-81
2023/06/12 08:35:42;;;;;;;6.63;5.25;;;;;;;30.97;29.67;101129.41;6274069;22;20019;-81
2023/06/12 08:38:09;;;;;;;6.03;4.82;;;;;;;31.66;28.21;101130.53;6275139;22;20019;-79
2023/06/12 08:40:36;;;;;;;7.10;5.53;;;;;;;31.84;28.09;101128.00;6247065;22;20023;-81
2023/06/12 08:43:02;;;;;;;6.60;4.63;;;;;;;31.38;27.29;101123.19;6269905;22;20028;-79
2023/06/12 08:45:31;;;;;;;8.02;3.92;;;;;;;31.13;27.79;101128.09;6299732;22;20015;-79
2023/06/12 08:47:57;;;;;;;7.32;4.80;;;;;;;31.08;27.76;101124.94;6299997;22;20015;-86
2023/06/12 08:50:24;;;;;;;8.40;4.85;;;;;;;31.47;27.30;101119.63;6248080;22;20077;-81
2023/06/12 08:52:52;;;;;;;5.93;4.47;;;;;;;31.56;26.66;101117.97;6247511;22;20027;-79
2023/06/12 08:55:20;;;;;;;4.30;3.92;;;;;;;31.46;25.41;101128.75;6273979;22;20019;-87
2023/06/12 08:57:48;;;;;;;4.22;3.83;;;;;;;31.25;24.59;101135.13;6300715;22;20045;-79
2023/06/12 09:00:15;;;;;;;6.13;3.42;;;;;;;30.97;23.93;101113.19;6247825;22;20334;-81
2023/06/12 09:02:52;;;;;;;4.03;3.72;;;;;;;31.14;24.00;101121.69;6273754;22;20019;-88
2023/06/12 09:05:24;;;;;;;3.85;3.55;;;;;;;31.86;23.99;101119.72;6275833;22;20026;-83
2023/06/12 09:07:51;;;;;;;4.28;3.40;;;;;;;32.77;22.78;101115.81;6302219;22;20046;-84
2023/06/12 09:10:18;;;;;;;4.80;3.95;;;;;;;32.77;21.73;101119.34;6274455;22;20022;-79
2023/06/12 09:12:45;;;;;;;6.53;4.35;;;;;;;32.97;22.58;101111.16;6249091;22;20019;-82
2023/06/12 09:15:21;;;;;;;3.67;3.42;;;;;;;33.18;20.97;101123.63;6274622;22;20015;-79
2023/06/12 09:17:53;;;;;;;5.05;4.15;;;;;;;32.59;21.58;101140.06;6273929;22;20023;-79
2023/06/12 09:20:33;;;;;;;4.40;3.55;;;;;;;32.49;21.76;101115.72;6271857;22;20090;-81
2023/06/12 09:23:04;;;;;;;7.35;4.13;;;;;;;33.31;21.12;101119.59;6246587;22;20054;-81
2023/06/12 09:25:37;;;;;;;12.45;3.97;;;;;;;34.44;20.29;101115.59;6272390;22;20074;-83
2023/06/12 09:28:04;;;;;;;4.75;3.05;;;;;;;34.66;20.41;101122.34;6246598;22;20030;-79
2023/06/12 09:30:42;;;;;;;9.15;3.88;;;;;;;35.25;19.79;101116.19;6272923;22;20042;-79
2023/06/12 09:33:10;;;;;;;16.52;4.03;;;;;;;35.27;19.75;101128.63;6273352;22;20530;-82
2023/06/12 09:35:53;;;;;;;17.52;4.18;;;;;;;35.37;19.39;101131.25;6275480;22;20407;-80
2023/06/12 09:38:35;;;;;;;9.52;4.10;;;;;;;35.76;18.97;101132.50;6274485;22;20066;-80
2023/06/12 09:41:04;;;;;;;4.70;3.38;;;;;;;36.22;19.51;101142.97;6272508;22;20026;-80
2023/06/12 09:43:31;;;;;;;3.47;3.17;;;;;;;35.92;18.34;101139.88;6271748;22;20026;-79
2023/06/12 09:45:58;;;;;;;8.02;3.00;;;;;;;35.47;18.12;101130.25;6272484;22;20029;-82
2023/06/12 09:48:33;;;;;;;3.45;2.75;;;;;;;35.31;18.25;101133.75;6273296;22;20045;-81
2023/06/12 09:51:05;;;;;;;5.60;2.83;;;;;;;35.03;18.56;101129.38;6248667;22;20027;-80
2023/06/12 09:53:36;;;;;;;4.72;3.17;;;;;;;34.34;18.52;101125.69;6273519;22;20045;-80
2023/06/12 09:56:08;;;;;;;3.72;2.95;;;;;;;34.73;18.70;101126.13;6273139;22;20445;-81
2023/06/12 09:58:37;;;;;;;3.28;2.78;;;;;;;34.54;18.71;101132.63;6274505;22;20023;-80
2023/06/12 10:01:06;;;;;;;4.28;3.13;;;;;;;34.82;18.30;101132.44;6299716;22;20674;-80
2023/06/12 10:03:38;;;;;;;3.75;2.78;;;;;;;35.21;18.13;101131.97;6247987;22;20095;-81
2023/06/12 10:06:07;;;;;;;2.70;2.55;;;;;;;35.53;18.38;101122.25;6273412;22;20358;-80
2023/06/12 10:08:35;;;;;;;5.80;2.95;;;;;;;35.54;18.40;101123.09;6274303;22;20015;-83
2023/06/12 10:11:04;;;;;;;4.78;3.25;;;;;;;36.01;17.53;101138.00;6247453;22;20568;-82
2023/06/12 10:13:32;;;;;;;6.00;3.10;;;;;;;36.17;17.80;101134.44;6248017;22;20015;-81
2023/06/12 10:16:00;;;;;;;3.45;3.13;;;;;;;36.87;16.92;101128.41;6272741;22;20022;-82
2023/06/12 10:18:28;;;;;;;2.50;2.30;;;;;;;36.74;16.68;101134.38;6248487;22;20015;-82
2023/06/12 10:20:55;;;;;;;5.13;2.58;;;;;;;36.19;16.62;101144.16;6248317;22;20019;-81
2023/06/12 10:23:25;;;;;;;3.38;2.90;;;;;;;35.80;17.12;101124.84;6272942;22;20060;-86
2023/06/12 10:25:53;;;;;;;3.25;3.05;;;;;;;37.02;16.31;101125.78;6247610;22;20105;-81
2023/06/12 10:28:20;;;;;;;3.95;2.72;;;;;;;36.83;16.55;101135.25;6274819;22;20020;-81
2023/06/12 10:31:22;;;;;;;3.42;3.13;;;;;;;37.30;16.28;101119.00;6274160;22;20438;-81
2023/06/12 10:34:10;;;;;;;3.20;2.95;;;;;;;37.17;15.49;101116.84;6181296;23;20022;-79
2023/06/12 10:36:46;;;;;;;3.20;2.78;;;;;;;37.03;16.09;101108.38;6268842;22;20295;-79
2023/06/12 10:39:16;;;;;;;5.45;2.65;;;;;;;37.22;16.09;101106.25;6274386;22;20018;-80
2023/06/12 10:41:56;;;;;;;3.10;2.83;;;;;;;37.83;15.44;101100.09;6300772;22;20029;-83
2023/06/12 10:44:41;;;;;;;2.45;2.33;;;;;;;36.82;15.68;101124.44;6300926;22;20019;-81
2023/06/12 10:47:22;;;;;;;7.72;3.33;;;;;;;36.69;15.69;101109.50;6271845;22;20029;-82
2023/06/12 10:50:03;;;;;;;2.33;2.13;;;;;;;36.74;15.44;101098.03;6271096;22;20030;-81
2023/06/12 10:52:30;;;;;;;3.20;2.90;;;;;;;38.00;15.41;101090.72;6246141;22;20015;-79
2023/06/12 10:55:23;;;;;;;3.10;2.90;;;;;;;37.97;15.06;101082.91;6273466;22;20019;-80
2023/06/12 10:57:55;;;;;;;6.65;3.70;;;;;;;38.82;14.48;101086.31;6273091;22;20391;-79
2023/06/12 11:00:28;;;;;;;2.60;2.50;;;;;;;38.73;14.48;101087.47;6273063;22;20049;-81
2023/06/12 11:03:03;;;;;;;2.70;2.50;;;;;;;39.14;14.32;101083.34;6272481;22;20510;-83
2023/06/12 11:05:31;;;;;;;3.63;2.28;;;;;;;39.12;14.05;101080.81;6272147;22;20018;-80
2023/06/12 11:08:00;;;;;;;4.57;3.25;;;;;;;38.50;14.18;101087.53;6273584;22;20114;-80
2023/06/12 11:10:28;;;;;;;3.38;2.75;;;;;;;38.56;14.28;101084.06;6272597;22;20026;-84
2023/06/12 11:12:57;;;;;;;6.95;2.97;;;;;;;38.73;14.17;101090.22;6270043;22;20430;-85
2023/06/12 11:15:25;;;;;;;2.65;2.45;;;;;;;38.45;13.87;101095.44;6269708;22;20023;-83
2023/06/12 11:17:52;;;;;;;2.60;2.05;;;;;;;39.20;13.63;101083.47;6271220;22;20019;-83
2023/06/12 11:20:20;;;;;;;4.35;2.70;;;;;;;39.91;13.23;101091.97;6247070;22;20122;-79
2023/06/12 11:22:47;;;;;;;3.00;2.80;;;;;;;39.85;13.10;101096.38;6272773;22;20411;-80
2023/06/12 11:25:15;;;;;;;4.03;2.90;;;;;;;39.46;13.02;101086.69;6272545;22;20086;-80
2023/06/12 11:27:41;;;;;;;2.85;2.60;;;;;;;39.10;13.69;101076.56;6271869;22;20046;-80
2023/06/12 11:30:17;;;;;;;2.80;2.60;;;;;;;39.66;12.75;101084.16;6271390;22;20047;-80